Manuel Santos

Olheiro - Tondela
4 Nov 2027
Quinta-feira
Processo

Personalidade

Adaptabilidade (2) Ambição (2) Controvérsia (17) Lealdade (19) Pressão (17) Profissionalismo (13) Espírito Esportivo (11) Temperamento (14)

Perfil

Estilo de Treinamento Democrático
Licença Continental Pro
Determinação 7
Gestão de Pessoas 12
Motivação 9
Disciplina 6
Satisfação no Trabalho
100%
Fadiga
0%
Função Olheiro
Salário 80.1K p/s
Contrato 14.03.2030

Desempenho

Comportamento Bom
Eficácia do Treinamento
36%
Desenvolvimento do Jogador
55%
Prevenção de Lesões
60%
Implementação Tática
40%

Eventos Recentes

Participou de uma reunião de recrutamento 14d atrás
Participou de uma reunião de recrutamento 21d atrás
Participou de uma reunião de recrutamento 28d atrás
Participou de uma reunião de recrutamento 35d atrás
Participou de uma reunião de recrutamento 42d atrás
Participou de uma reunião de recrutamento 49d atrás
Participou de uma reunião de recrutamento 56d atrás
Participou de uma reunião de recrutamento 56d atrás

Monitorando agora

56
Jogador Clube Status Habilidade Confiança Observado Última observação Último voto
Tshepang Moremi Orlando Pirates Ativo 135 / 106 40% 2 28.12.2026 -
Mario Dorgeles Braga Ativo 128 / 137 40% 1 28.12.2026 -
Reda Khadra Qarabag Ativo 144 / 147 40% 1 27.12.2026 -
Williams Manyama SuperSport United Ativo 97 / 130 40% 2 17.12.2026 -
Márcio Mendes Pandurii Ativo 116 / 132 40% 2 13.12.2026 -
Carlos Vicente Birmingham Ativo 141 / 147 40% 2 13.12.2026 -
Emi Rodriguez Leon Ativo 122 / 106 40% 1 12.12.2026 -
Santi García Gil Vicente Ativo 119 / 125 40% 2 08.12.2026 -
Giacomo Raspadori Atalanta Ativo 138 / 157 40% 1 07.12.2026 Mais informações
Mduduzi Shabalala Kaizer Chiefs Ativo 93 / 134 40% 1 04.12.2026 -
Kasey McAteer Ipswich Town Ativo 126 / 137 40% 1 01.12.2026 -
Kevin Fulham Ativo 146 / 148 40% 1 30.11.2026 -
Mandla Erasmus SuperSport United Ativo 131 / 128 40% 2 29.11.2026 -
Finn Azaz Southampton Ativo 133 / 124 40% 1 29.11.2026 -
Benjamin Kanurić SV Ried Ativo 120 / 103 40% 1 26.11.2026 -
Suleiman Camara Slovan Bratislava Ativo 123 / 119 40% 1 26.11.2026 -
Christian Krasnodar Ativo 144 / 138 40% 2 24.11.2026 -
Kwadwo Baah Watford Ativo 129 / 118 40% 1 24.11.2026 -
Duk Atlas Ativo 118 / 110 40% 1 20.11.2026 -
Noni Madueke Arsenal Ativo 155 / 154 40% 1 17.11.2026 -
Lee Hyun-Ju Arouca Ativo 124 / 112 40% 1 17.11.2026 -
João Simões Sporting CP Ativo 141 / 147 40% 1 17.11.2026 -
Vinícius Lopes Santa Clara Ativo 124 / 118 40% 1 15.11.2026 -
Zé Leite Leixões Ativo 114 / 106 40% 1 14.11.2026 -
Victor Froholdt Porto Ativo 156 / 145 40% 1 12.11.2026 -
Lucas Bergvall Tottenham Ativo 138 / 163 40% 1 12.11.2026 -
Jorrel Hato Chelsea Ativo 141 / 158 40% 1 11.11.2026 -
Luis Mina Vizela Ativo 89 / 101 40% 1 11.11.2026 -
Ryan Sessegnon Fulham Ativo 149 / 142 40% 2 09.11.2026 -
Callum Hudson-Odoi Nottingham Forest Ativo 162 / 138 40% 1 09.11.2026 -
Mario Stroeykens Anderlecht Ativo 140 / 126 40% 2 07.11.2026 -
Manu Pozo Torreense Ativo 109 / 110 40% 1 07.11.2026 -
Nico O'Reilly Manchester City Ativo 141 / 151 40% 1 05.11.2026 -
Matías Fernández Independiente Rivadavia Ativo 112 / 131 40% 1 02.11.2026 -
Alexis Cuello San Lorenzo Ativo 141 / 129 40% 1 02.11.2026 -
Víctor Gómez Braga Ativo 132 / 130 40% 1 01.11.2026 -
Soma Anzai FC Tokyo Ativo 117 / 102 40% 2 31.10.2026 -
Enzo Le Fée Sunderland Ativo 151 / 147 40% 1 28.10.2026 -
Marcus Edwards Burnley Ativo 125 / 145 40% 1 26.10.2026 -
Xavi Simons Tottenham Ativo 160 / 160 40% 1 13.10.2026 -
Diego Lainez Tigres Ativo 145 / 147 40% 1 09.10.2026 -
Ozziel Herrera Tigres Ativo 113 / 126 40% 1 09.10.2026 -
Santiago Fernández Talleres Ativo 104 / 106 40% 1 07.10.2026 -
Matt O'Riley Brighton Ativo 138 / 139 40% 1 07.10.2026 -
Yaimar Medina Racing Genk Ativo 122 / 122 40% 1 05.10.2026 -
Alan Lescano Argentinos Juniors Ativo 144 / 123 40% 1 13.09.2026 -
Georginio Rutter Brighton Ativo 136 / 147 40% 1 13.09.2026 -
Tomás O'Connor Gimnasia y Esgrima Ativo 121 / 138 40% 1 11.09.2026 -
David Da Costa Portland Timbers Ativo 127 / 126 40% 1 11.09.2026 -
Elías Báez Atlanta United FC Ativo 112 / 107 40% 2 10.09.2026 -
Riqui Puig LA Galaxy Ativo 136 / 122 40% 1 08.09.2026 -
Mauricio Amaro Atlanta United FC Ativo 135 / 118 40% 1 31.08.2026 -
Daniel Rivas AVS Ativo 120 / 113 51% 1 24.08.2026 -
Luís Bastos Oliveirense Ativo 109 / 93 51% 1 17.08.2026 -
Lucas Agazzi Defensor Sporting Ativo 111 / 123 40% 1 17.08.2026 -
Rhaisson Oeste Ativo 84 / 94 40% 1 01.08.2026 -